sensor_id;sensor_type;location;lat;lon;timestamp;pressure;altitude;pressure_sealevel;temperature;humidity
11987;BME280;6053;51.382;6.768;2022-09-13T00:01:14;100659.75;;;20.36;84.10
11987;BME280;6053;51.382;6.768;2022-09-13T00:03:44;100648.81;;;19.28;92.61
11987;BME280;6053;51.382;6.768;2022-09-13T00:06:14;100653.47;;;19.43;100.00
11987;BME280;6053;51.382;6.768;2022-09-13T00:08:44;100660.03;;;20.34;96.59
11987;BME280;6053;51.382;6.768;2022-09-13T00:11:18;100657.66;;;20.65;91.83
11987;BME280;6053;51.382;6.768;2022-09-13T00:13:47;100647.91;;;20.63;88.23
11987;BME280;6053;51.382;6.768;2022-09-13T00:16:18;100650.94;;;19.99;91.90
11987;BME280;6053;51.382;6.768;2022-09-13T00:18:48;100641.50;;;19.66;95.79
11987;BME280;6053;51.382;6.768;2022-09-13T00:21:19;100642.56;;;20.42;93.69
11987;BME280;6053;51.382;6.768;2022-09-13T00:23:50;100634.22;;;20.37;88.17
11987;BME280;6053;51.382;6.768;2022-09-13T00:26:21;100630.72;;;20.45;87.33
11987;BME280;6053;51.382;6.768;2022-09-13T00:28:51;100631.09;;;19.72;92.99
11987;BME280;6053;51.382;6.768;2022-09-13T00:31:22;100633.16;;;20.33;88.49
11987;BME280;6053;51.382;6.768;2022-09-13T00:33:53;100624.88;;;20.23;93.14
11987;BME280;6053;51.382;6.768;2022-09-13T00:36:21;100637.56;;;19.91;92.24
11987;BME280;6053;51.382;6.768;2022-09-13T00:38:49;100631.38;;;20.18;92.20
11987;BME280;6053;51.382;6.768;2022-09-13T00:41:19;100645.69;;;20.98;89.74
11987;BME280;6053;51.382;6.768;2022-09-13T00:43:52;100645.91;;;21.53;82.07
11987;BME280;6053;51.382;6.768;2022-09-13T00:46:30;100645.72;;;21.30;85.99
11987;BME280;6053;51.382;6.768;2022-09-13T00:49:10;100640.25;;;20.87;82.75
11987;BME280;6053;51.382;6.768;2022-09-13T00:51:43;100634.28;;;21.27;86.89
11987;BME280;6053;51.382;6.768;2022-09-13T00:54:13;100636.16;;;21.50;82.99
11987;BME280;6053;51.382;6.768;2022-09-13T00:56:47;100632.22;;;21.00;86.24
11987;BME280;6053;51.382;6.768;2022-09-13T00:59:24;100631.81;;;21.06;80.94
11987;BME280;6053;51.382;6.768;2022-09-13T01:01:55;100619.66;;;21.30;85.94
11987;BME280;6053;51.382;6.768;2022-09-13T01:04:27;100625.16;;;21.68;81.36
11987;BME280;6053;51.382;6.768;2022-09-13T01:07:01;100624.72;;;21.60;82.96
11987;BME280;6053;51.382;6.768;2022-09-13T01:09:32;100619.22;;;21.83;81.87
11987;BME280;6053;51.382;6.768;2022-09-13T01:12:05;100622.56;;;21.99;81.61
11987;BME280;6053;51.382;6.768;2022-09-13T01:14:36;100618.72;;;22.08;81.03
11987;BME280;6053;51.382;6.768;2022-09-13T01:17:05;100620.50;;;22.04;80.16
11987;BME280;6053;51.382;6.768;2022-09-13T01:19:36;100620.31;;;21.40;83.17
11987;BME280;6053;51.382;6.768;2022-09-13T01:22:55;100628.78;;;21.68;83.08
11987;BME280;6053;51.382;6.768;2022-09-13T01:26:20;100620.47;;;21.63;82.32
11987;BME280;6053;51.382;6.768;2022-09-13T01:29:27;100619.75;;;21.85;81.96
11987;BME280;6053;51.382;6.768;2022-09-13T01:32:10;100612.41;;;21.10;85.37
11987;BME280;6053;51.382;6.768;2022-09-13T01:34:55;100613.09;;;21.02;85.97
11987;BME280;6053;51.382;6.768;2022-09-13T01:37:47;100610.16;;;20.93;84.00
11987;BME280;6053;51.382;6.768;2022-09-13T01:40:31;100612.28;;;21.34;85.20
11987;BME280;6053;51.382;6.768;2022-09-13T01:43:21;100601.88;;;20.45;86.13
11987;BME280;6053;51.382;6.768;2022-09-13T01:45:59;100598.78;;;19.55;90.57
11987;BME280;6053;51.382;6.768;2022-09-13T01:48:43;100600.84;;;19.16;98.91
11987;BME280;6053;51.382;6.768;2022-09-13T01:51:25;100603.88;;;19.19;97.67
11987;BME280;6053;51.382;6.768;2022-09-13T01:54:12;100601.66;;;20.22;93.40
11987;BME280;6053;51.382;6.768;2022-09-13T01:56:53;100610.41;;;20.78;91.05
11987;BME280;6053;51.382;6.768;2022-09-13T01:59:34;100609.88;;;21.27;84.88
11987;BME280;6053;51.382;6.768;2022-09-13T02:02:09;100608.97;;;20.80;85.42
11987;BME280;6053;51.382;6.768;2022-09-13T02:04:45;100605.59;;;20.40;88.19
11987;BME280;6053;51.382;6.768;2022-09-13T02:07:19;100607.47;;;20.45;91.26
11987;BME280;6053;51.382;6.768;2022-09-13T02:09:58;100605.13;;;21.09;87.36
11987;BME280;6053;51.382;6.768;2022-09-13T02:12:31;100600.22;;;20.82;86.88
11987;BME280;6053;51.382;6.768;2022-09-13T02:15:07;100604.34;;;20.70;86.44
11987;BME280;6053;51.382;6.768;2022-09-13T02:17:39;100605.72;;;21.06;85.79
11987;BME280;6053;51.382;6.768;2022-09-13T02:20:16;100608.03;;;20.04;86.38
11987;BME280;6053;51.382;6.768;2022-09-13T02:22:52;100602.09;;;21.05;87.92
11987;BME280;6053;51.382;6.768;2022-09-13T02:25:23;100596.31;;;20.02;86.08
11987;BME280;6053;51.382;6.768;2022-09-13T02:27:55;100604.16;;;20.43;86.27
11987;BME280;6053;51.382;6.768;2022-09-13T02:30:28;100609.66;;;21.24;85.10
11987;BME280;6053;51.382;6.768;2022-09-13T02:33:03;100605.00;;;20.81;85.62
11987;BME280;6053;51.382;6.768;2022-09-13T02:35:39;100597.16;;;20.02;85.86
11987;BME280;6053;51.382;6.768;2022-09-13T02:38:14;100588.41;;;19.27;90.65
11987;BME280;6053;51.382;6.768;2022-09-13T02:40:54;100590.13;;;20.24;91.19
11987;BME280;6053;51.382;6.768;2022-09-13T02:43:30;100597.94;;;20.27;87.59
11987;BME280;6053;51.382;6.768;2022-09-13T02:46:16;100587.91;;;20.02;91.84
11987;BME280;6053;51.382;6.768;2022-09-13T02:48:56;100588.63;;;19.65;94.33
11987;BME280;6053;51.382;6.768;2022-09-13T02:51:34;100602.81;;;19.15;93.86
11987;BME280;6053;51.382;6.768;2022-09-13T02:54:21;100598.44;;;19.33;96.39
11987;BME280;6053;51.382;6.768;2022-09-13T02:56:57;100603.00;;;18.90;98.17
11987;BME280;6053;51.382;6.768;2022-09-13T02:59:26;100598.34;;;18.80;100.00
11987;BME280;6053;51.382;6.768;2022-09-13T03:01:59;100607.03;;;18.78;100.00
11987;BME280;6053;51.382;6.768;2022-09-13T03:04:30;100610.91;;;19.99;99.96
11987;BME280;6053;51.382;6.768;2022-09-13T03:07:01;100607.41;;;20.31;94.92
11987;BME280;6053;51.382;6.768;2022-09-13T03:09:30;100612.22;;;19.24;100.00
11987;BME280;6053;51.382;6.768;2022-09-13T03:12:20;100612.47;;;20.29;93.57
11987;BME280;6053;51.382;6.768;2022-09-13T03:15:05;100623.28;;;19.69;93.34
11987;BME280;6053;51.382;6.768;2022-09-13T03:17:52;100614.47;;;19.81;96.58
11987;BME280;6053;51.382;6.768;2022-09-13T03:20:32;100619.72;;;19.87;96.01
11987;BME280;6053;51.382;6.768;2022-09-13T03:23:40;100617.94;;;19.72;100.00
11987;BME280;6053;51.382;6.768;2022-09-13T03:26:24;100616.84;;;19.68;99.75
11987;BME280;6053;51.382;6.768;2022-09-13T03:29:05;100616.69;;;19.84;100.00
11987;BME280;6053;51.382;6.768;2022-09-13T03:31:47;100607.97;;;20.09;99.86
11987;BME280;6053;51.382;6.768;2022-09-13T03:34:28;100604.22;;;19.13;100.00
11987;BME280;6053;51.382;6.768;2022-09-13T03:37:04;100601.53;;;19.02;100.00
11987;BME280;6053;51.382;6.768;2022-09-13T03:39:41;100607.13;;;18.97;100.00
11987;BME280;6053;51.382;6.768;2022-09-13T03:42:17;100596.97;;;19.12;100.00
11987;BME280;6053;51.382;6.768;2022-09-13T03:44:49;100596.97;;;19.12;100.00
11987;BME280;6053;51.382;6.768;2022-09-13T03:47:21;100589.88;;;17.91;100.00
11987;BME280;6053;51.382;6.768;2022-09-13T03:49:52;100587.09;;;17.91;100.00
11987;BME280;6053;51.382;6.768;2022-09-13T03:52:20;100587.66;;;17.83;100.00
11987;BME280;6053;51.382;6.768;2022-09-13T03:54:52;100576.16;;;18.05;100.00
11987;BME280;6053;51.382;6.768;2022-09-13T03:57:21;100583.47;;;18.45;100.00
11987;BME280;6053;51.382;6.768;2022-09-13T03:59:52;100585.22;;;19.10;100.00
11987;BME280;6053;51.382;6.768;2022-09-13T04:02:23;100577.63;;;19.44;100.00
11987;BME280;6053;51.382;6.768;2022-09-13T04:04:52;100579.81;;;19.76;100.00
11987;BME280;6053;51.382;6.768;2022-09-13T04:07:22;100585.91;;;20.27;100.00
11987;BME280;6053;51.382;6.768;2022-09-13T04:09:52;100585.59;;;20.28;100.00
11987;BME280;6053;51.382;6.768;2022-09-13T04:12:22;100588.41;;;20.85;100.00
11987;BME280;6053;51.382;6.768;2022-09-13T04:14:50;100584.34;;;20.15;100.00
11987;BME280;6053;51.382;6.768;2022-09-13T04:17:18;100588.47;;;19.51;100.00
11987;BME280;6053;51.382;6.768;2022-09-13T04:19:47;100590.75;;;19.97;100.00
11987;BME280;6053;51.382;6.768;2022-09-13T04:22:15;100583.44;;;19.48;100.00
11987;BME280;6053;51.382;6.768;2022-09-13T04:24:43;100586.13;;;19.05;100.00
11987;BME280;6053;51.382;6.768;2022-09-13T04:27:13;100583.75;;;17.89;100.00
11987;BME280;6053;51.382;6.768;2022-09-13T04:29:41;100586.44;;;18.09;100.00
11987;BME280;6053;51.382;6.768;2022-09-13T04:32:10;100578.97;;;18.44;100.00
11987;BME280;6053;51.382;6.768;2022-09-13T04:34:38;100584.38;;;18.30;100.00
11987;BME280;6053;51.382;6.768;2022-09-13T04:37:07;100575.38;;;17.74;100.00
11987;BME280;6053;51.382;6.768;2022-09-13T04:39:36;100584.84;;;17.93;100.00
11987;BME280;6053;51.382;6.768;2022-09-13T04:42:05;100585.34;;;18.05;100.00
11987;BME280;6053;51.382;6.768;2022-09-13T04:44:35;100580.84;;;18.59;100.00
11987;BME280;6053;51.382;6.768;2022-09-13T04:47:05;100592.31;;;19.02;100.00
11987;BME280;6053;51.382;6.768;2022-09-13T04:49:34;100591.94;;;19.38;100.00
11987;BME280;6053;51.382;6.768;2022-09-13T04:52:02;100597.28;;;20.11;100.00
11987;BME280;6053;51.382;6.768;2022-09-13T04:54:30;100588.19;;;19.23;100.00
11987;BME280;6053;51.382;6.768;2022-09-13T04:56:59;100590.59;;;19.01;100.00
11987;BME280;6053;51.382;6.768;2022-09-13T04:59:27;100596.00;;;19.21;100.00
11987;BME280;6053;51.382;6.768;2022-09-13T05:04:25;100596.31;;;20.21;100.00
11987;BME280;6053;51.382;6.768;2022-09-13T05:06:53;100594.88;;;19.51;100.00
11987;BME280;6053;51.382;6.768;2022-09-13T05:09:21;100596.47;;;19.63;100.00
11987;BME280;6053;51.382;6.768;2022-09-13T05:11:50;100595.53;;;19.72;100.00
11987;BME280;6053;51.382;6.768;2022-09-13T05:14:18;100599.56;;;19.32;100.00
11987;BME280;6053;51.382;6.768;2022-09-13T05:16:46;100599.59;;;19.27;100.00
11987;BME280;6053;51.382;6.768;2022-09-13T05:19:16;100601.75;;;18.22;100.00
11987;BME280;6053;51.382;6.768;2022-09-13T05:21:44;100596.91;;;18.82;100.00
11987;BME280;6053;51.382;6.768;2022-09-13T05:24:13;100592.50;;;19.69;100.00
11987;BME280;6053;51.382;6.768;2022-09-13T05:26:41;100600.00;;;19.73;100.00
11987;BME280;6053;51.382;6.768;2022-09-13T05:29:09;100601.31;;;19.81;100.00
11987;BME280;6053;51.382;6.768;2022-09-13T05:31:40;100603.34;;;20.61;100.00
11987;BME280;6053;51.382;6.768;2022-09-13T05:34:11;100605.00;;;19.47;100.00
11987;BME280;6053;51.382;6.768;2022-09-13T05:36:42;100604.38;;;20.46;100.00
11987;BME280;6053;51.382;6.768;2022-09-13T05:39:14;100597.91;;;20.70;100.00
11987;BME280;6053;51.382;6.768;2022-09-13T05:42:04;100602.63;;;20.56;100.00
11987;BME280;6053;51.382;6.768;2022-09-13T05:44:32;100607.69;;;20.73;100.00
11987;BME280;6053;51.382;6.768;2022-09-13T05:47:01;100609.31;;;20.36;100.00
11987;BME280;6053;51.382;6.768;2022-09-13T05:49:29;100607.19;;;20.46;100.00
11987;BME280;6053;51.382;6.768;2022-09-13T05:51:59;100608.63;;;20.01;100.00
11987;BME280;6053;51.382;6.768;2022-09-13T05:54:27;100608.94;;;19.99;100.00
11987;BME280;6053;51.382;6.768;2022-09-13T05:56:55;100614.47;;;20.85;100.00
11987;BME280;6053;51.382;6.768;2022-09-13T05:59:24;100626.00;;;21.35;99.56
11987;BME280;6053;51.382;6.768;2022-09-13T06:01:52;100626.19;;;21.58;97.06
11987;BME280;6053;51.382;6.768;2022-09-13T06:04:21;100624.22;;;21.72;95.31
11987;BME280;6053;51.382;6.768;2022-09-13T06:06:49;100627.16;;;21.81;94.10
11987;BME280;6053;51.382;6.768;2022-09-13T06:09:19;100630.44;;;21.55;93.41
11987;BME280;6053;51.382;6.768;2022-09-13T06:11:47;100626.50;;;20.48;100.00
11987;BME280;6053;51.382;6.768;2022-09-13T06:14:16;100623.13;;;19.26;100.00
11987;BME280;6053;51.382;6.768;2022-09-13T06:16:44;100623.97;;;18.92;100.00
11987;BME280;6053;51.382;6.768;2022-09-13T06:19:12;100624.34;;;19.44;100.00
11987;BME280;6053;51.382;6.768;2022-09-13T06:21:41;100615.59;;;19.50;100.00
11987;BME280;6053;51.382;6.768;2022-09-13T06:24:09;100621.50;;;19.78;100.00
11987;BME280;6053;51.382;6.768;2022-09-13T06:26:39;100615.66;;;19.45;100.00
11987;BME280;6053;51.382;6.768;2022-09-13T06:29:10;100615.44;;;18.68;100.00
11987;BME280;6053;51.382;6.768;2022-09-13T06:31:38;100616.50;;;19.46;100.00
11987;BME280;6053;51.382;6.768;2022-09-13T06:34:11;100621.94;;;19.32;100.00
11987;BME280;6053;51.382;6.768;2022-09-13T06:36:41;100622.00;;;19.56;100.00
11987;BME280;6053;51.382;6.768;2022-09-13T06:39:09;100625.56;;;19.33;100.00
11987;BME280;6053;51.382;6.768;2022-09-13T06:41:39;100622.41;;;19.97;100.00
11987;BME280;6053;51.382;6.768;2022-09-13T06:44:08;100616.91;;;20.92;100.00
11987;BME280;6053;51.382;6.768;2022-09-13T06:46:37;100623.19;;;20.65;100.00
11987;BME280;6053;51.382;6.768;2022-09-13T06:49:06;100617.47;;;19.65;100.00
11987;BME280;6053;51.382;6.768;2022-09-13T06:51:35;100621.59;;;19.92;100.00
11987;BME280;6053;51.382;6.768;2022-09-13T06:54:04;100608.84;;;21.04;100.00
11987;BME280;6053;51.382;6.768;2022-09-13T06:56:36;100609.25;;;21.63;99.04
11987;BME280;6053;51.382;6.768;2022-09-13T06:59:09;100613.53;;;20.33;100.00
11987;BME280;6053;51.382;6.768;2022-09-13T07:01:39;100610.22;;;20.50;100.00
11987;BME280;6053;51.382;6.768;2022-09-13T07:04:12;100615.28;;;21.05;100.00
11987;BME280;6053;51.382;6.768;2022-09-13T07:06:42;100616.81;;;21.76;95.70
11987;BME280;6053;51.382;6.768;2022-09-13T07:09:14;100619.63;;;21.76;96.34
11987;BME280;6053;51.382;6.768;2022-09-13T07:11:44;100617.22;;;20.53;100.00
11987;BME280;6053;51.382;6.768;2022-09-13T07:14:16;100622.50;;;19.87;100.00
11987;BME280;6053;51.382;6.768;2022-09-13T07:16:45;100617.28;;;19.81;100.00
11987;BME280;6053;51.382;6.768;2022-09-13T07:19:15;100619.00;;;20.00;100.00
11987;BME280;6053;51.382;6.768;2022-09-13T07:21:44;100618.13;;;20.24;100.00
11987;BME280;6053;51.382;6.768;2022-09-13T07:24:12;100617.06;;;20.20;100.00
11987;BME280;6053;51.382;6.768;2022-09-13T07:26:41;100621.13;;;20.33;100.00
11987;BME280;6053;51.382;6.768;2022-09-13T07:29:15;100621.94;;;20.33;100.00
11987;BME280;6053;51.382;6.768;2022-09-13T07:31:47;100629.84;;;21.07;100.00
11987;BME280;6053;51.382;6.768;2022-09-13T07:34:17;100628.22;;;21.38;95.62
11987;BME280;6053;51.382;6.768;2022-09-13T07:36:47;100622.22;;;20.93;100.00
11987;BME280;6053;51.382;6.768;2022-09-13T07:39:16;100627.59;;;21.23;100.00
11987;BME280;6053;51.382;6.768;2022-09-13T07:41:48;100622.63;;;21.52;94.27
11987;BME280;6053;51.382;6.768;2022-09-13T07:44:18;100632.81;;;21.48;94.05
11987;BME280;6053;51.382;6.768;2022-09-13T07:46:47;100634.25;;;21.46;98.09
11987;BME280;6053;51.382;6.768;2022-09-13T07:49:17;100630.56;;;22.05;93.89
11987;BME280;6053;51.382;6.768;2022-09-13T07:51:46;100631.53;;;22.28;91.64
11987;BME280;6053;51.382;6.768;2022-09-13T07:54:18;100631.38;;;22.61;89.32
11987;BME280;6053;51.382;6.768;2022-09-13T07:56:47;100638.59;;;22.26;90.87
11987;BME280;6053;51.382;6.768;2022-09-13T07:59:19;100643.00;;;22.18;91.51
11987;BME280;6053;51.382;6.768;2022-09-13T08:01:48;100644.25;;;22.76;87.97
11987;BME280;6053;51.382;6.768;2022-09-13T08:04:19;100646.81;;;22.64;87.05
11987;BME280;6053;51.382;6.768;2022-09-13T08:06:51;100650.31;;;23.05;85.04
11987;BME280;6053;51.382;6.768;2022-09-13T08:09:19;100650.16;;;22.88;86.46
11987;BME280;6053;51.382;6.768;2022-09-13T08:11:50;100653.09;;;21.59;88.55
11987;BME280;6053;51.382;6.768;2022-09-13T08:14:22;100651.47;;;21.85;92.76
11987;BME280;6053;51.382;6.768;2022-09-13T08:16:54;100659.22;;;22.21;88.55
11987;BME280;6053;51.382;6.768;2022-09-13T08:19:23;100652.75;;;23.43;83.05
11987;BME280;6053;51.382;6.768;2022-09-13T08:21:51;100651.47;;;23.49;77.81
11987;BME280;6053;51.382;6.768;2022-09-13T08:24:21;100656.00;;;24.21;77.27
11987;BME280;6053;51.382;6.768;2022-09-13T08:26:49;100648.41;;;23.91;74.38
11987;BME280;6053;51.382;6.768;2022-09-13T08:29:19;100650.44;;;24.08;75.86
11987;BME280;6053;51.382;6.768;2022-09-13T08:31:47;100653.19;;;23.82;77.65
11987;BME280;6053;51.382;6.768;2022-09-13T08:34:16;100648.19;;;23.56;80.04
11987;BME280;6053;51.382;6.768;2022-09-13T08:36:45;100646.22;;;23.57;74.38
11987;BME280;6053;51.382;6.768;2022-09-13T08:39:14;100643.19;;;23.75;76.59
11987;BME280;6053;51.382;6.768;2022-09-13T08:44:50;100636.47;;;23.63;73.38
11987;BME280;6053;51.382;6.768;2022-09-13T08:47:31;100638.44;;;23.09;78.15
11987;BME280;6053;51.382;6.768;2022-09-13T08:50:11;100631.41;;;24.13;76.34
11987;BME280;6053;51.382;6.768;2022-09-13T08:52:55;100634.03;;;23.16;78.12
11987;BME280;6053;51.382;6.768;2022-09-13T08:55:39;100632.06;;;24.02;77.42
11987;BME280;6053;51.382;6.768;2022-09-13T08:58:34;100642.78;;;24.39;75.51
11987;BME280;6053;51.382;6.768;2022-09-13T09:01:11;100637.28;;;24.26;74.77
11987;BME280;6053;51.382;6.768;2022-09-13T09:03:51;100632.38;;;23.38;76.15
11987;BME280;6053;51.382;6.768;2022-09-13T09:06:23;100632.25;;;23.74;76.54
11987;BME280;6053;51.382;6.768;2022-09-13T09:08:56;100632.56;;;24.52;73.14
11987;BME280;6053;51.382;6.768;2022-09-13T09:11:33;100628.59;;;24.13;72.54
11987;BME280;6053;51.382;6.768;2022-09-13T09:14:10;100629.13;;;24.24;78.26
11987;BME280;6053;51.382;6.768;2022-09-13T09:16:45;100634.56;;;24.69;73.80
11987;BME280;6053;51.382;6.768;2022-09-13T09:19:20;100641.19;;;24.64;69.81
11987;BME280;6053;51.382;6.768;2022-09-13T09:21:50;100634.75;;;24.99;72.97
11987;BME280;6053;51.382;6.768;2022-09-13T09:24:22;100629.59;;;25.35;69.70
11987;BME280;6053;51.382;6.768;2022-09-13T09:26:52;100630.97;;;25.12;67.94
11987;BME280;6053;51.382;6.768;2022-09-13T09:29:25;100634.91;;;24.76;72.16
11987;BME280;6053;51.382;6.768;2022-09-13T09:32:08;100637.34;;;23.94;74.87
11987;BME280;6053;51.382;6.768;2022-09-13T09:34:53;100633.03;;;24.54;73.71
11987;BME280;6053;51.382;6.768;2022-09-13T09:37:28;100630.06;;;24.51;73.66
11987;BME280;6053;51.382;6.768;2022-09-13T09:39:59;100631.69;;;23.94;74.62
11987;BME280;6053;51.382;6.768;2022-09-13T09:42:37;100625.50;;;24.32;75.92
11987;BME280;6053;51.382;6.768;2022-09-13T09:45:24;100630.47;;;24.27;73.16
11987;BME280;6053;51.382;6.768;2022-09-13T09:47:56;100620.34;;;24.26;74.29
11987;BME280;6053;51.382;6.768;2022-09-13T09:50:30;100620.59;;;24.64;72.00
11987;BME280;6053;51.382;6.768;2022-09-13T09:53:06;100622.22;;;25.52;70.42
11987;BME280;6053;51.382;6.768;2022-09-13T09:55:42;100622.06;;;25.57;68.84
11987;BME280;6053;51.382;6.768;2022-09-13T09:58:13;100628.53;;;25.66;68.47
11987;BME280;6053;51.382;6.768;2022-09-13T10:00:52;100628.34;;;26.48;65.09
11987;BME280;6053;51.382;6.768;2022-09-13T10:03:25;100625.56;;;25.45;67.50
11987;BME280;6053;51.382;6.768;2022-09-13T10:06:05;100616.66;;;25.90;66.24
11987;BME280;6053;51.382;6.768;2022-09-13T10:08:36;100617.63;;;25.21;65.02
11987;BME280;6053;51.382;6.768;2022-09-13T10:11:06;100613.06;;;25.63;69.24
11987;BME280;6053;51.382;6.768;2022-09-13T10:13:35;100619.75;;;25.50;68.87
11987;BME280;6053;51.382;6.768;2022-09-13T10:16:20;100609.19;;;24.95;67.56
11987;BME280;6053;51.382;6.768;2022-09-13T10:18:52;100617.81;;;24.90;68.52
11987;BME280;6053;51.382;6.768;2022-09-13T10:21:23;100618.50;;;25.13;69.12
11987;BME280;6053;51.382;6.768;2022-09-13T10:23:51;100620.41;;;25.47;71.41
11987;BME280;6053;51.382;6.768;2022-09-13T10:26:40;100611.50;;;26.22;66.79
11987;BME280;6053;51.382;6.768;2022-09-13T10:29:13;100627.75;;;25.95;64.33
11987;BME280;6053;51.382;6.768;2022-09-13T10:31:46;100620.88;;;26.14;60.64
11987;BME280;6053;51.382;6.768;2022-09-13T10:34:21;100615.94;;;26.31;63.74
11987;BME280;6053;51.382;6.768;2022-09-13T10:36:55;100620.69;;;26.48;63.57
11987;BME280;6053;51.382;6.768;2022-09-13T10:39:29;100607.81;;;26.00;61.39
11987;BME280;6053;51.382;6.768;2022-09-13T10:42:01;100613.34;;;25.88;63.38
11987;BME280;6053;51.382;6.768;2022-09-13T10:44:33;100613.94;;;26.02;62.09
11987;BME280;6053;51.382;6.768;2022-09-13T10:47:11;100609.69;;;26.47;58.35
11987;BME280;6053;51.382;6.768;2022-09-13T10:49:46;100612.91;;;26.87;62.66
11987;BME280;6053;51.382;6.768;2022-09-13T10:52:30;100612.78;;;27.83;56.07
11987;BME280;6053;51.382;6.768;2022-09-13T10:55:27;100610.84;;;27.50;58.78
11987;BME280;6053;51.382;6.768;2022-09-13T10:58:20;100619.78;;;27.19;58.30
11987;BME280;6053;51.382;6.768;2022-09-13T11:06:52;100605.63;;;27.98;59.18
11987;BME280;6053;51.382;6.768;2022-09-13T11:09:34;100602.38;;;27.75;59.64
11987;BME280;6053;51.382;6.768;2022-09-13T11:12:10;100601.78;;;27.24;58.01
11987;BME280;6053;51.382;6.768;2022-09-13T11:14:54;100593.31;;;27.36;60.34
11987;BME280;6053;51.382;6.768;2022-09-13T11:17:38;100593.84;;;27.63;59.48
11987;BME280;6053;51.382;6.768;2022-09-13T11:20:25;100583.84;;;26.78;61.34
11987;BME280;6053;51.382;6.768;2022-09-13T11:23:36;100592.28;;;27.41;59.69
11987;BME280;6053;51.382;6.768;2022-09-13T11:26:24;100592.34;;;26.78;59.55
11987;BME280;6053;51.382;6.768;2022-09-13T11:29:03;100582.13;;;26.65;58.17
11987;BME280;6053;51.382;6.768;2022-09-13T11:31:41;100581.19;;;26.31;65.66
11987;BME280;6053;51.382;6.768;2022-09-13T11:34:31;100583.22;;;26.22;62.25
11987;BME280;6053;51.382;6.768;2022-09-13T11:37:25;100573.53;;;26.02;64.93
11987;BME280;6053;51.382;6.768;2022-09-13T11:40:21;100563.56;;;26.25;62.12
11987;BME280;6053;51.382;6.768;2022-09-13T11:43:04;100569.19;;;26.34;60.25
11987;BME280;6053;51.382;6.768;2022-09-13T11:45:41;100564.94;;;26.49;61.85
11987;BME280;6053;51.382;6.768;2022-09-13T11:48:27;100566.41;;;26.25;64.66
11987;BME280;6053;51.382;6.768;2022-09-13T11:51:04;100565.94;;;26.23;66.17
11987;BME280;6053;51.382;6.768;2022-09-13T11:53:51;100562.28;;;26.23;65.64
11987;BME280;6053;51.382;6.768;2022-09-13T11:56:28;100553.69;;;26.10;61.70
11987;BME280;6053;51.382;6.768;2022-09-13T11:59:09;100543.81;;;25.96;64.12
11987;BME280;6053;51.382;6.768;2022-09-13T12:01:46;100545.78;;;26.25;67.12
11987;BME280;6053;51.382;6.768;2022-09-13T12:04:20;100543.78;;;26.25;63.94
11987;BME280;6053;51.382;6.768;2022-09-13T12:06:54;100545.44;;;26.56;65.90
11987;BME280;6053;51.382;6.768;2022-09-13T12:09:29;100540.72;;;26.60;66.08
11987;BME280;6053;51.382;6.768;2022-09-13T12:12:06;100538.63;;;26.69;66.01
11987;BME280;6053;51.382;6.768;2022-09-13T12:14:42;100534.28;;;26.30;66.60
11987;BME280;6053;51.382;6.768;2022-09-13T12:17:22;100544.09;;;26.74;64.94
11987;BME280;6053;51.382;6.768;2022-09-13T12:19:55;100538.91;;;26.34;63.21
11987;BME280;6053;51.382;6.768;2022-09-13T12:22:28;100539.16;;;26.50;65.00
11987;BME280;6053;51.382;6.768;2022-09-13T12:24:58;100538.56;;;26.78;64.05
11987;BME280;6053;51.382;6.768;2022-09-13T12:27:37;100539.38;;;26.78;64.53
11987;BME280;6053;51.382;6.768;2022-09-13T12:30:13;100527.19;;;26.99;64.21
11987;BME280;6053;51.382;6.768;2022-09-13T12:32:43;100524.78;;;27.10;64.24
11987;BME280;6053;51.382;6.768;2022-09-13T12:35:19;100531.94;;;26.74;66.82
11987;BME280;6053;51.382;6.768;2022-09-13T12:38:04;100535.16;;;27.51;60.47
11987;BME280;6053;51.382;6.768;2022-09-13T12:40:54;100526.03;;;27.00;60.15
11987;BME280;6053;51.382;6.768;2022-09-13T12:43:55;100530.09;;;27.57;60.46
11987;BME280;6053;51.382;6.768;2022-09-13T12:46:54;100531.50;;;27.63;62.62
11987;BME280;6053;51.382;6.768;2022-09-13T12:49:59;100529.00;;;27.49;60.57
11987;BME280;6053;51.382;6.768;2022-09-13T12:53:02;100530.03;;;26.99;62.89
11987;BME280;6053;51.382;6.768;2022-09-13T12:55:54;100532.41;;;27.30;64.34
11987;BME280;6053;51.382;6.768;2022-09-13T12:58:46;100530.78;;;27.54;60.90
11987;BME280;6053;51.382;6.768;2022-09-13T13:01:21;100522.53;;;27.61;62.75
11987;BME280;6053;51.382;6.768;2022-09-13T13:03:53;100522.47;;;27.24;61.48
11987;BME280;6053;51.382;6.768;2022-09-13T13:06:30;100526.81;;;27.79;62.58
11987;BME280;6053;51.382;6.768;2022-09-13T13:09:03;100522.19;;;27.50;59.36
11987;BME280;6053;51.382;6.768;2022-09-13T13:11:43;100527.72;;;27.46;62.68
11987;BME280;6053;51.382;6.768;2022-09-13T13:14:43;100528.59;;;27.26;62.61
11987;BME280;6053;51.382;6.768;2022-09-13T13:17:35;100525.78;;;27.26;62.67
11987;BME280;6053;51.382;6.768;2022-09-13T13:20:43;100527.47;;;27.52;62.33
11987;BME280;6053;51.382;6.768;2022-09-13T13:23:28;100520.97;;;27.26;60.13
11987;BME280;6053;51.382;6.768;2022-09-13T13:26:06;100521.94;;;27.55;60.64
11987;BME280;6053;51.382;6.768;2022-09-13T13:29:13;100518.59;;;27.53;62.98
11987;BME280;6053;51.382;6.768;2022-09-13T13:34:43;100513.22;;;27.85;58.02
11987;BME280;6053;51.382;6.768;2022-09-13T13:37:35;100519.63;;;27.82;54.78
11987;BME280;6053;51.382;6.768;2022-09-13T13:40:22;100512.25;;;27.56;55.17
11987;BME280;6053;51.382;6.768;2022-09-13T13:46:22;100504.91;;;27.31;57.43
11987;BME280;6053;51.382;6.768;2022-09-13T13:48:52;100505.41;;;27.45;54.72
11987;BME280;6053;51.382;6.768;2022-09-13T13:51:23;100510.81;;;27.38;56.41
11987;BME280;6053;51.382;6.768;2022-09-13T13:53:59;100513.41;;;27.43;59.20
11987;BME280;6053;51.382;6.768;2022-09-13T13:56:43;100507.88;;;27.34;58.92
11987;BME280;6053;51.382;6.768;2022-09-13T13:59:21;100500.53;;;27.21;58.63